sensor_id;sensor_type;location;lat;lon;timestamp;P1;durP1;ratioP1;P2;durP2;ratioP2
19084;SDS011;9675;51.538;6.728;2023-04-28T00:02:01;5.57;;;1.77;;
19084;SDS011;9675;51.538;6.728;2023-04-28T00:04:30;7.70;;;3.20;;
19084;SDS011;9675;51.538;6.728;2023-04-28T00:06:57;6.23;;;2.23;;
19084;SDS011;9675;51.538;6.728;2023-04-28T00:09:24;4.93;;;2.17;;
19084;SDS011;9675;51.538;6.728;2023-04-28T00:11:51;4.67;;;1.77;;
19084;SDS011;9675;51.538;6.728;2023-04-28T00:14:18;4.67;;;1.60;;
19084;SDS011;9675;51.538;6.728;2023-04-28T00:16:45;6.00;;;2.67;;
19084;SDS011;9675;51.538;6.728;2023-04-28T00:19:12;4.97;;;1.90;;
19084;SDS011;9675;51.538;6.728;2023-04-28T00:21:40;5.23;;;2.73;;
19084;SDS011;9675;51.538;6.728;2023-04-28T00:24:07;3.97;;;2.30;;
19084;SDS011;9675;51.538;6.728;2023-04-28T00:26:34;6.43;;;2.20;;
19084;SDS011;9675;51.538;6.728;2023-04-28T00:29:01;4.23;;;2.33;;
19084;SDS011;9675;51.538;6.728;2023-04-28T00:31:28;3.70;;;1.97;;
19084;SDS011;9675;51.538;6.728;2023-04-28T00:33:55;6.97;;;2.10;;
19084;SDS011;9675;51.538;6.728;2023-04-28T00:36:22;7.37;;;2.87;;
19084;SDS011;9675;51.538;6.728;2023-04-28T00:38:50;4.57;;;2.70;;
19084;SDS011;9675;51.538;6.728;2023-04-28T00:41:17;3.43;;;1.90;;
19084;SDS011;9675;51.538;6.728;2023-04-28T00:43:45;6.13;;;2.30;;
19084;SDS011;9675;51.538;6.728;2023-04-28T00:46:19;3.43;;;1.70;;
19084;SDS011;9675;51.538;6.728;2023-04-28T00:48:48;4.40;;;2.10;;
19084;SDS011;9675;51.538;6.728;2023-04-28T00:51:15;10.10;;;1.87;;
19084;SDS011;9675;51.538;6.728;2023-04-28T00:53:42;5.77;;;3.03;;
19084;SDS011;9675;51.538;6.728;2023-04-28T00:56:11;4.60;;;2.70;;
19084;SDS011;9675;51.538;6.728;2023-04-28T00:58:38;5.07;;;2.20;;
19084;SDS011;9675;51.538;6.728;2023-04-28T01:01:06;3.40;;;1.70;;
19084;SDS011;9675;51.538;6.728;2023-04-28T01:03:35;5.93;;;2.80;;
19084;SDS011;9675;51.538;6.728;2023-04-28T01:06:05;4.30;;;2.50;;
19084;SDS011;9675;51.538;6.728;2023-04-28T01:08:35;5.90;;;2.33;;
19084;SDS011;9675;51.538;6.728;2023-04-28T01:11:03;4.43;;;1.70;;
19084;SDS011;9675;51.538;6.728;2023-04-28T01:13:32;4.13;;;1.87;;
19084;SDS011;9675;51.538;6.728;2023-04-28T01:15:59;7.10;;;2.70;;
19084;SDS011;9675;51.538;6.728;2023-04-28T01:18:26;4.20;;;1.87;;
19084;SDS011;9675;51.538;6.728;2023-04-28T01:20:53;3.47;;;2.33;;
19084;SDS011;9675;51.538;6.728;2023-04-28T01:23:20;4.23;;;2.30;;
19084;SDS011;9675;51.538;6.728;2023-04-28T01:25:49;2.67;;;1.70;;
19084;SDS011;9675;51.538;6.728;2023-04-28T01:28:16;5.77;;;2.20;;
19084;SDS011;9675;51.538;6.728;2023-04-28T01:30:43;4.10;;;2.17;;
19084;SDS011;9675;51.538;6.728;2023-04-28T01:33:10;4.17;;;2.47;;
19084;SDS011;9675;51.538;6.728;2023-04-28T01:35:37;5.77;;;1.83;;
19084;SDS011;9675;51.538;6.728;2023-04-28T01:38:04;5.50;;;2.30;;
19084;SDS011;9675;51.538;6.728;2023-04-28T01:40:31;4.73;;;2.57;;
19084;SDS011;9675;51.538;6.728;2023-04-28T01:42:59;7.77;;;2.90;;
19084;SDS011;9675;51.538;6.728;2023-04-28T01:45:26;6.17;;;2.53;;
19084;SDS011;9675;51.538;6.728;2023-04-28T01:47:53;4.47;;;2.67;;
19084;SDS011;9675;51.538;6.728;2023-04-28T01:50:20;6.87;;;2.20;;
19084;SDS011;9675;51.538;6.728;2023-04-28T01:52:47;6.30;;;3.17;;
19084;SDS011;9675;51.538;6.728;2023-04-28T01:55:14;4.80;;;3.03;;
19084;SDS011;9675;51.538;6.728;2023-04-28T01:57:41;6.57;;;2.87;;
19084;SDS011;9675;51.538;6.728;2023-04-28T02:00:10;3.50;;;2.30;;
19084;SDS011;9675;51.538;6.728;2023-04-28T02:02:38;5.83;;;2.50;;
19084;SDS011;9675;51.538;6.728;2023-04-28T02:05:14;5.07;;;2.60;;
19084;SDS011;9675;51.538;6.728;2023-04-28T02:07:48;6.07;;;2.47;;
19084;SDS011;9675;51.538;6.728;2023-04-28T02:10:15;3.00;;;2.03;;
19084;SDS011;9675;51.538;6.728;2023-04-28T02:12:42;4.33;;;2.40;;
19084;SDS011;9675;51.538;6.728;2023-04-28T02:15:10;4.37;;;2.60;;
19084;SDS011;9675;51.538;6.728;2023-04-28T02:17:38;5.23;;;2.30;;
19084;SDS011;9675;51.538;6.728;2023-04-28T02:20:05;6.67;;;3.90;;
19084;SDS011;9675;51.538;6.728;2023-04-28T02:22:34;6.80;;;2.93;;
19084;SDS011;9675;51.538;6.728;2023-04-28T02:25:07;6.50;;;2.80;;
19084;SDS011;9675;51.538;6.728;2023-04-28T02:27:37;4.50;;;3.00;;
19084;SDS011;9675;51.538;6.728;2023-04-28T02:30:04;6.80;;;2.63;;
19084;SDS011;9675;51.538;6.728;2023-04-28T02:32:34;7.47;;;3.37;;
19084;SDS011;9675;51.538;6.728;2023-04-28T02:35:01;9.30;;;2.40;;
19084;SDS011;9675;51.538;6.728;2023-04-28T02:37:29;5.63;;;3.20;;
19084;SDS011;9675;51.538;6.728;2023-04-28T02:39:56;4.57;;;2.00;;
19084;SDS011;9675;51.538;6.728;2023-04-28T02:42:23;7.67;;;2.97;;
19084;SDS011;9675;51.538;6.728;2023-04-28T02:44:50;4.93;;;2.57;;
19084;SDS011;9675;51.538;6.728;2023-04-28T02:47:17;4.10;;;2.43;;
19084;SDS011;9675;51.538;6.728;2023-04-28T02:49:45;6.07;;;2.83;;
19084;SDS011;9675;51.538;6.728;2023-04-28T02:52:12;7.77;;;3.07;;
19084;SDS011;9675;51.538;6.728;2023-04-28T02:54:39;4.73;;;2.50;;
19084;SDS011;9675;51.538;6.728;2023-04-28T02:57:06;8.47;;;2.93;;
19084;SDS011;9675;51.538;6.728;2023-04-28T02:59:33;5.57;;;3.33;;
19084;SDS011;9675;51.538;6.728;2023-04-28T03:02:00;6.57;;;2.80;;
19084;SDS011;9675;51.538;6.728;2023-04-28T03:04:27;6.63;;;3.30;;
19084;SDS011;9675;51.538;6.728;2023-04-28T03:06:56;9.20;;;3.60;;
19084;SDS011;9675;51.538;6.728;2023-04-28T03:09:23;6.27;;;4.00;;
19084;SDS011;9675;51.538;6.728;2023-04-28T03:11:50;7.47;;;3.63;;
19084;SDS011;9675;51.538;6.728;2023-04-28T03:14:17;9.07;;;3.90;;
19084;SDS011;9675;51.538;6.728;2023-04-28T03:16:44;6.47;;;3.77;;
19084;SDS011;9675;51.538;6.728;2023-04-28T03:19:11;7.67;;;4.43;;
19084;SDS011;9675;51.538;6.728;2023-04-28T03:21:38;8.90;;;3.90;;
19084;SDS011;9675;51.538;6.728;2023-04-28T03:24:06;8.43;;;4.07;;
19084;SDS011;9675;51.538;6.728;2023-04-28T03:26:33;8.53;;;4.67;;
19084;SDS011;9675;51.538;6.728;2023-04-28T03:29:01;8.63;;;3.43;;
19084;SDS011;9675;51.538;6.728;2023-04-28T03:31:28;8.67;;;4.37;;
19084;SDS011;9675;51.538;6.728;2023-04-28T03:33:55;9.47;;;4.03;;
19084;SDS011;9675;51.538;6.728;2023-04-28T03:36:23;6.37;;;2.93;;
19084;SDS011;9675;51.538;6.728;2023-04-28T03:38:51;6.63;;;3.73;;
19084;SDS011;9675;51.538;6.728;2023-04-28T03:41:19;8.33;;;4.13;;
19084;SDS011;9675;51.538;6.728;2023-04-28T03:43:46;6.77;;;2.83;;
19084;SDS011;9675;51.538;6.728;2023-04-28T03:46:13;4.97;;;2.80;;
19084;SDS011;9675;51.538;6.728;2023-04-28T03:48:40;8.23;;;4.03;;
19084;SDS011;9675;51.538;6.728;2023-04-28T03:51:07;7.20;;;3.97;;
19084;SDS011;9675;51.538;6.728;2023-04-28T03:53:34;9.10;;;4.17;;
19084;SDS011;9675;51.538;6.728;2023-04-28T03:56:01;12.97;;;4.20;;
19084;SDS011;9675;51.538;6.728;2023-04-28T03:58:30;7.80;;;3.60;;
19084;SDS011;9675;51.538;6.728;2023-04-28T04:00:57;10.37;;;5.20;;
19084;SDS011;9675;51.538;6.728;2023-04-28T04:03:24;9.10;;;3.70;;
19084;SDS011;9675;51.538;6.728;2023-04-28T04:05:51;10.93;;;4.00;;
19084;SDS011;9675;51.538;6.728;2023-04-28T04:08:19;11.87;;;4.73;;
19084;SDS011;9675;51.538;6.728;2023-04-28T04:10:46;9.17;;;3.87;;
19084;SDS011;9675;51.538;6.728;2023-04-28T04:13:13;6.80;;;3.10;;
19084;SDS011;9675;51.538;6.728;2023-04-28T04:15:42;9.13;;;3.90;;
19084;SDS011;9675;51.538;6.728;2023-04-28T04:18:09;7.47;;;4.17;;
19084;SDS011;9675;51.538;6.728;2023-04-28T04:20:36;6.57;;;3.33;;
19084;SDS011;9675;51.538;6.728;2023-04-28T04:23:03;11.17;;;3.80;;
19084;SDS011;9675;51.538;6.728;2023-04-28T04:25:30;8.60;;;3.77;;
19084;SDS011;9675;51.538;6.728;2023-04-28T04:27:57;6.60;;;3.53;;
19084;SDS011;9675;51.538;6.728;2023-04-28T04:30:24;6.23;;;3.70;;
19084;SDS011;9675;51.538;6.728;2023-04-28T04:32:53;7.40;;;3.63;;
19084;SDS011;9675;51.538;6.728;2023-04-28T04:35:20;7.30;;;3.43;;
19084;SDS011;9675;51.538;6.728;2023-04-28T04:37:47;8.20;;;3.60;;
19084;SDS011;9675;51.538;6.728;2023-04-28T04:40:15;9.60;;;4.47;;
19084;SDS011;9675;51.538;6.728;2023-04-28T04:42:42;10.50;;;4.67;;
19084;SDS011;9675;51.538;6.728;2023-04-28T04:45:09;8.57;;;4.30;;
19084;SDS011;9675;51.538;6.728;2023-04-28T04:47:36;5.50;;;3.43;;
19084;SDS011;9675;51.538;6.728;2023-04-28T04:50:05;7.97;;;3.97;;
19084;SDS011;9675;51.538;6.728;2023-04-28T04:52:33;8.70;;;3.83;;
19084;SDS011;9675;51.538;6.728;2023-04-28T04:55:01;9.03;;;4.23;;
19084;SDS011;9675;51.538;6.728;2023-04-28T04:57:28;5.43;;;2.77;;
19084;SDS011;9675;51.538;6.728;2023-04-28T04:59:55;9.80;;;3.30;;
19084;SDS011;9675;51.538;6.728;2023-04-28T05:02:22;11.63;;;4.10;;
19084;SDS011;9675;51.538;6.728;2023-04-28T05:04:49;8.13;;;4.10;;
19084;SDS011;9675;51.538;6.728;2023-04-28T05:07:18;7.83;;;4.07;;
19084;SDS011;9675;51.538;6.728;2023-04-28T05:09:45;7.20;;;3.37;;
19084;SDS011;9675;51.538;6.728;2023-04-28T05:12:11;7.50;;;3.83;;
19084;SDS011;9675;51.538;6.728;2023-04-28T05:14:38;5.63;;;2.97;;
19084;SDS011;9675;51.538;6.728;2023-04-28T05:17:05;7.33;;;3.67;;
19084;SDS011;9675;51.538;6.728;2023-04-28T05:19:32;8.43;;;3.13;;
19084;SDS011;9675;51.538;6.728;2023-04-28T05:22:00;4.70;;;2.97;;
19084;SDS011;9675;51.538;6.728;2023-04-28T05:24:28;7.90;;;4.20;;
19084;SDS011;9675;51.538;6.728;2023-04-28T05:26:56;5.80;;;3.67;;
19084;SDS011;9675;51.538;6.728;2023-04-28T05:29:24;5.67;;;3.27;;
19084;SDS011;9675;51.538;6.728;2023-04-28T05:31:51;7.57;;;3.57;;
19084;SDS011;9675;51.538;6.728;2023-04-28T05:34:18;5.00;;;2.70;;
19084;SDS011;9675;51.538;6.728;2023-04-28T05:36:45;5.70;;;3.07;;
19084;SDS011;9675;51.538;6.728;2023-04-28T05:39:13;6.47;;;3.67;;
19084;SDS011;9675;51.538;6.728;2023-04-28T05:41:41;8.03;;;4.00;;
19084;SDS011;9675;51.538;6.728;2023-04-28T05:44:08;8.87;;;3.73;;
19084;SDS011;9675;51.538;6.728;2023-04-28T05:46:35;9.27;;;4.00;;
19084;SDS011;9675;51.538;6.728;2023-04-28T05:49:02;7.37;;;3.63;;
19084;SDS011;9675;51.538;6.728;2023-04-28T05:51:29;6.80;;;3.57;;
19084;SDS011;9675;51.538;6.728;2023-04-28T05:53:57;8.40;;;4.60;;
19084;SDS011;9675;51.538;6.728;2023-04-28T05:56:25;8.03;;;3.73;;
19084;SDS011;9675;51.538;6.728;2023-04-28T05:58:53;7.00;;;3.37;;
19084;SDS011;9675;51.538;6.728;2023-04-28T06:01:22;7.97;;;3.43;;
19084;SDS011;9675;51.538;6.728;2023-04-28T06:03:49;8.10;;;3.73;;
19084;SDS011;9675;51.538;6.728;2023-04-28T06:06:17;7.33;;;3.53;;
19084;SDS011;9675;51.538;6.728;2023-04-28T06:08:45;8.47;;;3.53;;
19084;SDS011;9675;51.538;6.728;2023-04-28T06:11:12;7.47;;;3.90;;
19084;SDS011;9675;51.538;6.728;2023-04-28T06:13:39;9.93;;;4.60;;
19084;SDS011;9675;51.538;6.728;2023-04-28T06:16:07;5.50;;;2.97;;
19084;SDS011;9675;51.538;6.728;2023-04-28T06:18:34;6.60;;;4.23;;
19084;SDS011;9675;51.538;6.728;2023-04-28T06:21:02;4.20;;;2.60;;
19084;SDS011;9675;51.538;6.728;2023-04-28T06:23:29;9.30;;;3.73;;
19084;SDS011;9675;51.538;6.728;2023-04-28T06:25:56;8.03;;;3.93;;
19084;SDS011;9675;51.538;6.728;2023-04-28T06:28:23;12.53;;;4.07;;
19084;SDS011;9675;51.538;6.728;2023-04-28T06:30:50;7.03;;;3.50;;
19084;SDS011;9675;51.538;6.728;2023-04-28T06:33:19;7.50;;;4.10;;
19084;SDS011;9675;51.538;6.728;2023-04-28T06:35:46;5.63;;;3.37;;
19084;SDS011;9675;51.538;6.728;2023-04-28T06:38:13;6.83;;;3.87;;
19084;SDS011;9675;51.538;6.728;2023-04-28T06:40:40;9.83;;;4.33;;
19084;SDS011;9675;51.538;6.728;2023-04-28T06:43:07;15.13;;;4.93;;
19084;SDS011;9675;51.538;6.728;2023-04-28T06:45:34;6.80;;;3.77;;
19084;SDS011;9675;51.538;6.728;2023-04-28T06:48:01;6.80;;;3.57;;
19084;SDS011;9675;51.538;6.728;2023-04-28T06:50:30;8.80;;;4.03;;
19084;SDS011;9675;51.538;6.728;2023-04-28T06:52:57;6.30;;;4.10;;
19084;SDS011;9675;51.538;6.728;2023-04-28T06:55:24;10.40;;;4.80;;
19084;SDS011;9675;51.538;6.728;2023-04-28T06:57:52;7.87;;;4.37;;
19084;SDS011;9675;51.538;6.728;2023-04-28T07:00:19;7.90;;;4.27;;
19084;SDS011;9675;51.538;6.728;2023-04-28T07:02:46;10.63;;;4.80;;
19084;SDS011;9675;51.538;6.728;2023-04-28T07:05:13;8.27;;;4.43;;
19084;SDS011;9675;51.538;6.728;2023-04-28T07:07:42;8.30;;;4.50;;
19084;SDS011;9675;51.538;6.728;2023-04-28T07:10:09;9.93;;;4.97;;
19084;SDS011;9675;51.538;6.728;2023-04-28T07:12:37;7.90;;;4.40;;
19084;SDS011;9675;51.538;6.728;2023-04-28T07:15:05;8.70;;;4.83;;
19084;SDS011;9675;51.538;6.728;2023-04-28T07:17:33;8.93;;;3.90;;
19084;SDS011;9675;51.538;6.728;2023-04-28T07:20:01;8.07;;;4.20;;
19084;SDS011;9675;51.538;6.728;2023-04-28T07:22:29;9.87;;;4.93;;
19084;SDS011;9675;51.538;6.728;2023-04-28T07:24:57;7.27;;;4.73;;
19084;SDS011;9675;51.538;6.728;2023-04-28T07:27:24;8.43;;;5.10;;
19084;SDS011;9675;51.538;6.728;2023-04-28T07:29:51;14.50;;;5.20;;
19084;SDS011;9675;51.538;6.728;2023-04-28T07:32:18;8.93;;;4.47;;
19084;SDS011;9675;51.538;6.728;2023-04-28T07:34:45;10.43;;;4.50;;
19084;SDS011;9675;51.538;6.728;2023-04-28T07:37:12;11.17;;;4.40;;
19084;SDS011;9675;51.538;6.728;2023-04-28T07:39:39;9.80;;;5.37;;
19084;SDS011;9675;51.538;6.728;2023-04-28T07:42:08;10.30;;;4.77;;
19084;SDS011;9675;51.538;6.728;2023-04-28T07:44:35;9.40;;;4.97;;
19084;SDS011;9675;51.538;6.728;2023-04-28T07:47:02;8.93;;;4.07;;
19084;SDS011;9675;51.538;6.728;2023-04-28T07:49:30;9.03;;;4.20;;
19084;SDS011;9675;51.538;6.728;2023-04-28T07:51:57;7.97;;;4.47;;
19084;SDS011;9675;51.538;6.728;2023-04-28T07:54:24;10.10;;;4.77;;
19084;SDS011;9675;51.538;6.728;2023-04-28T07:56:51;15.10;;;5.40;;
19084;SDS011;9675;51.538;6.728;2023-04-28T07:59:19;11.73;;;5.57;;
19084;SDS011;9675;51.538;6.728;2023-04-28T08:01:46;9.40;;;4.63;;
19084;SDS011;9675;51.538;6.728;2023-04-28T08:04:14;10.43;;;5.23;;
19084;SDS011;9675;51.538;6.728;2023-04-28T08:06:41;12.63;;;4.67;;
19084;SDS011;9675;51.538;6.728;2023-04-28T08:09:08;9.17;;;4.20;;
19084;SDS011;9675;51.538;6.728;2023-04-28T08:11:35;10.73;;;4.50;;
19084;SDS011;9675;51.538;6.728;2023-04-28T08:14:02;15.73;;;4.73;;
19084;SDS011;9675;51.538;6.728;2023-04-28T08:16:30;9.70;;;5.00;;
19084;SDS011;9675;51.538;6.728;2023-04-28T08:18:58;8.70;;;4.80;;
19084;SDS011;9675;51.538;6.728;2023-04-28T08:21:25;9.93;;;5.17;;
19084;SDS011;9675;51.538;6.728;2023-04-28T08:23:52;10.57;;;5.07;;
19084;SDS011;9675;51.538;6.728;2023-04-28T08:26:19;12.93;;;5.53;;
19084;SDS011;9675;51.538;6.728;2023-04-28T08:28:48;12.03;;;6.07;;
19084;SDS011;9675;51.538;6.728;2023-04-28T08:31:16;11.00;;;4.80;;
19084;SDS011;9675;51.538;6.728;2023-04-28T08:33:44;10.37;;;5.20;;
19084;SDS011;9675;51.538;6.728;2023-04-28T08:36:14;14.80;;;5.17;;
19084;SDS011;9675;51.538;6.728;2023-04-28T08:38:42;10.67;;;6.17;;
19084;SDS011;9675;51.538;6.728;2023-04-28T08:41:10;12.93;;;5.43;;
19084;SDS011;9675;51.538;6.728;2023-04-28T08:43:41;13.53;;;5.37;;
19084;SDS011;9675;51.538;6.728;2023-04-28T08:46:08;12.17;;;5.03;;
19084;SDS011;9675;51.538;6.728;2023-04-28T08:48:38;9.97;;;5.27;;
19084;SDS011;9675;51.538;6.728;2023-04-28T08:51:11;14.40;;;5.07;;
19084;SDS011;9675;51.538;6.728;2023-04-28T08:53:43;12.83;;;6.17;;
19084;SDS011;9675;51.538;6.728;2023-04-28T08:56:15;8.70;;;4.60;;
19084;SDS011;9675;51.538;6.728;2023-04-28T08:58:47;21.13;;;6.57;;
19084;SDS011;9675;51.538;6.728;2023-04-28T09:01:16;18.13;;;5.67;;
19084;SDS011;9675;51.538;6.728;2023-04-28T09:03:43;13.63;;;5.27;;
19084;SDS011;9675;51.538;6.728;2023-04-28T09:06:13;10.93;;;4.83;;
19084;SDS011;9675;51.538;6.728;2023-04-28T09:08:40;7.00;;;4.30;;
19084;SDS011;9675;51.538;6.728;2023-04-28T09:11:07;11.63;;;5.47;;
19084;SDS011;9675;51.538;6.728;2023-04-28T09:13:37;15.97;;;6.43;;
19084;SDS011;9675;51.538;6.728;2023-04-28T09:16:05;11.80;;;5.93;;
19084;SDS011;9675;51.538;6.728;2023-04-28T09:18:33;11.67;;;4.83;;
19084;SDS011;9675;51.538;6.728;2023-04-28T09:21:03;14.63;;;5.77;;
19084;SDS011;9675;51.538;6.728;2023-04-28T09:23:34;13.63;;;6.10;;
19084;SDS011;9675;51.538;6.728;2023-04-28T09:26:12;12.93;;;5.37;;
19084;SDS011;9675;51.538;6.728;2023-04-28T09:28:39;11.97;;;5.53;;
19084;SDS011;9675;51.538;6.728;2023-04-28T09:31:11;8.10;;;4.30;;
19084;SDS011;9675;51.538;6.728;2023-04-28T09:33:55;17.10;;;7.47;;
19084;SDS011;9675;51.538;6.728;2023-04-28T09:36:25;11.93;;;5.90;;
19084;SDS011;9675;51.538;6.728;2023-04-28T09:38:57;13.57;;;6.83;;
19084;SDS011;9675;51.538;6.728;2023-04-28T09:41:34;11.37;;;6.20;;
19084;SDS011;9675;51.538;6.728;2023-04-28T09:44:13;10.30;;;5.17;;
19084;SDS011;9675;51.538;6.728;2023-04-28T09:46:43;10.20;;;5.73;;
19084;SDS011;9675;51.538;6.728;2023-04-28T09:49:11;10.10;;;5.83;;
19084;SDS011;9675;51.538;6.728;2023-04-28T09:51:39;17.20;;;8.80;;
19084;SDS011;9675;51.538;6.728;2023-04-28T09:54:08;16.27;;;8.87;;
19084;SDS011;9675;51.538;6.728;2023-04-28T09:56:36;18.00;;;8.40;;
19084;SDS011;9675;51.538;6.728;2023-04-28T09:59:11;16.87;;;8.07;;
19084;SDS011;9675;51.538;6.728;2023-04-28T10:01:39;28.57;;;9.20;;
19084;SDS011;9675;51.538;6.728;2023-04-28T10:04:08;23.30;;;9.70;;
19084;SDS011;9675;51.538;6.728;2023-04-28T10:06:37;22.03;;;10.00;;
19084;SDS011;9675;51.538;6.728;2023-04-28T10:09:05;17.83;;;8.60;;
19084;SDS011;9675;51.538;6.728;2023-04-28T10:11:36;19.23;;;8.13;;
19084;SDS011;9675;51.538;6.728;2023-04-28T10:14:04;16.37;;;8.07;;
19084;SDS011;9675;51.538;6.728;2023-04-28T10:16:31;15.17;;;7.07;;
19084;SDS011;9675;51.538;6.728;2023-04-28T10:18:59;11.13;;;5.87;;
19084;SDS011;9675;51.538;6.728;2023-04-28T10:21:28;12.37;;;6.40;;
19084;SDS011;9675;51.538;6.728;2023-04-28T10:24:08;10.77;;;6.00;;
19084;SDS011;9675;51.538;6.728;2023-04-28T10:26:57;16.43;;;7.33;;
19084;SDS011;9675;51.538;6.728;2023-04-28T10:29:32;9.03;;;5.27;;
19084;SDS011;9675;51.538;6.728;2023-04-28T10:32:16;18.13;;;5.90;;
19084;SDS011;9675;51.538;6.728;2023-04-28T10:34:50;11.73;;;5.33;;
19084;SDS011;9675;51.538;6.728;2023-04-28T10:37:17;11.37;;;5.40;;
19084;SDS011;9675;51.538;6.728;2023-04-28T10:43:00;14.03;;;5.63;;
19084;SDS011;9675;51.538;6.728;2023-04-28T10:48:54;17.10;;;6.93;;
19084;SDS011;9675;51.538;6.728;2023-04-28T10:51:32;13.13;;;7.13;;
19084;SDS011;9675;51.538;6.728;2023-04-28T10:54:15;10.37;;;6.13;;
19084;SDS011;9675;51.538;6.728;2023-04-28T10:59:47;15.57;;;6.03;;
19084;SDS011;9675;51.538;6.728;2023-04-28T11:05:12;10.53;;;5.77;;
19084;SDS011;9675;51.538;6.728;2023-04-28T11:16:58;9.97;;;5.23;;
19084;SDS011;9675;51.538;6.728;2023-04-28T11:19:28;9.20;;;5.03;;
19084;SDS011;9675;51.538;6.728;2023-04-28T11:21:56;11.67;;;5.83;;
19084;SDS011;9675;51.538;6.728;2023-04-28T11:24:26;9.57;;;5.43;;
19084;SDS011;9675;51.538;6.728;2023-04-28T11:26:55;8.70;;;5.53;;
19084;SDS011;9675;51.538;6.728;2023-04-28T11:29:31;9.20;;;5.30;;
19084;SDS011;9675;51.538;6.728;2023-04-28T11:32:00;10.10;;;5.87;;
19084;SDS011;9675;51.538;6.728;2023-04-28T11:34:27;8.30;;;5.03;;
19084;SDS011;9675;51.538;6.728;2023-04-28T11:36:54;10.37;;;6.50;;
19084;SDS011;9675;51.538;6.728;2023-04-28T11:39:25;12.27;;;5.83;;
19084;SDS011;9675;51.538;6.728;2023-04-28T11:41:54;13.03;;;6.30;;
19084;SDS011;9675;51.538;6.728;2023-04-28T11:44:22;8.60;;;5.63;;
19084;SDS011;9675;51.538;6.728;2023-04-28T11:46:52;11.23;;;6.30;;
19084;SDS011;9675;51.538;6.728;2023-04-28T11:49:21;12.33;;;6.27;;
19084;SDS011;9675;51.538;6.728;2023-04-28T11:51:49;11.87;;;6.53;;
19084;SDS011;9675;51.538;6.728;2023-04-28T11:54:21;12.93;;;5.70;;
19084;SDS011;9675;51.538;6.728;2023-04-28T11:56:49;10.67;;;6.37;;
19084;SDS011;9675;51.538;6.728;2023-04-28T11:59:17;11.17;;;5.70;;
19084;SDS011;9675;51.538;6.728;2023-04-28T12:01:50;11.67;;;5.20;;
19084;SDS011;9675;51.538;6.728;2023-04-28T12:04:26;8.70;;;5.00;;
19084;SDS011;9675;51.538;6.728;2023-04-28T12:07:02;7.67;;;4.67;;
19084;SDS011;9675;51.538;6.728;2023-04-28T12:09:31;7.77;;;5.20;;
19084;SDS011;9675;51.538;6.728;2023-04-28T12:12:00;10.77;;;5.47;;
19084;SDS011;9675;51.538;6.728;2023-04-28T12:14:29;9.23;;;5.20;;
19084;SDS011;9675;51.538;6.728;2023-04-28T12:17:00;7.20;;;4.83;;
19084;SDS011;9675;51.538;6.728;2023-04-28T12:19:28;9.90;;;4.77;;
19084;SDS011;9675;51.538;6.728;2023-04-28T12:21:58;11.33;;;5.93;;
19084;SDS011;9675;51.538;6.728;2023-04-28T12:24:28;8.87;;;5.00;;
19084;SDS011;9675;51.538;6.728;2023-04-28T12:29:42;22.23;;;9.80;;
19084;SDS011;9675;51.538;6.728;2023-04-28T12:32:12;15.23;;;7.17;;
19084;SDS011;9675;51.538;6.728;2023-04-28T12:34:40;12.27;;;5.30;;
19084;SDS011;9675;51.538;6.728;2023-04-28T12:37:10;13.13;;;7.60;;
19084;SDS011;9675;51.538;6.728;2023-04-28T12:39:39;8.97;;;4.93;;
19084;SDS011;9675;51.538;6.728;2023-04-28T12:42:07;10.43;;;6.00;;
19084;SDS011;9675;51.538;6.728;2023-04-28T12:44:34;7.73;;;4.40;;
19084;SDS011;9675;51.538;6.728;2023-04-28T12:47:03;9.47;;;4.83;;
19084;SDS011;9675;51.538;6.728;2023-04-28T12:49:33;6.87;;;3.73;;
19084;SDS011;9675;51.538;6.728;2023-04-28T12:52:01;6.67;;;3.87;;
19084;SDS011;9675;51.538;6.728;2023-04-28T12:54:29;5.03;;;3.10;;
19084;SDS011;9675;51.538;6.728;2023-04-28T12:56:57;5.43;;;4.37;;
19084;SDS011;9675;51.538;6.728;2023-04-28T12:59:24;8.03;;;4.80;;
19084;SDS011;9675;51.538;6.728;2023-04-28T13:01:51;6.87;;;4.20;;
19084;SDS011;9675;51.538;6.728;2023-04-28T13:04:19;11.00;;;5.93;;
19084;SDS011;9675;51.538;6.728;2023-04-28T13:06:48;5.67;;;3.77;;
19084;SDS011;9675;51.538;6.728;2023-04-28T13:09:15;5.93;;;4.07;;
19084;SDS011;9675;51.538;6.728;2023-04-28T13:11:43;5.43;;;3.73;;
19084;SDS011;9675;51.538;6.728;2023-04-28T13:14:10;7.53;;;4.23;;
19084;SDS011;9675;51.538;6.728;2023-04-28T13:16:37;5.30;;;3.40;;
19084;SDS011;9675;51.538;6.728;2023-04-28T13:19:04;4.70;;;3.63;;
19084;SDS011;9675;51.538;6.728;2023-04-28T13:21:34;4.90;;;3.07;;
19084;SDS011;9675;51.538;6.728;2023-04-28T13:24:04;5.93;;;3.30;;
19084;SDS011;9675;51.538;6.728;2023-04-28T13:26:31;5.90;;;3.37;;
19084;SDS011;9675;51.538;6.728;2023-04-28T13:28:59;6.27;;;3.77;;
19084;SDS011;9675;51.538;6.728;2023-04-28T13:31:27;6.57;;;4.23;;
19084;SDS011;9675;51.538;6.728;2023-04-28T13:33:55;5.67;;;3.90;;
19084;SDS011;9675;51.538;6.728;2023-04-28T13:36:22;9.40;;;4.63;;
19084;SDS011;9675;51.538;6.728;2023-04-28T13:38:50;5.80;;;3.63;;
19084;SDS011;9675;51.538;6.728;2023-04-28T13:41:19;6.50;;;4.03;;
19084;SDS011;9675;51.538;6.728;2023-04-28T13:43:46;3.70;;;2.83;;
19084;SDS011;9675;51.538;6.728;2023-04-28T13:46:13;6.13;;;3.47;;
19084;SDS011;9675;51.538;6.728;2023-04-28T13:48:40;9.40;;;4.13;;
19084;SDS011;9675;51.538;6.728;2023-04-28T13:51:07;4.87;;;3.03;;
19084;SDS011;9675;51.538;6.728;2023-04-28T13:53:35;4.23;;;2.60;;
19084;SDS011;9675;51.538;6.728;2023-04-28T13:56:03;4.33;;;3.23;;
19084;SDS011;9675;51.538;6.728;2023-04-28T13:58:32;3.63;;;2.60;;
19084;SDS011;9675;51.538;6.728;2023-04-28T14:01:00;5.67;;;3.77;;
19084;SDS011;9675;51.538;6.728;2023-04-28T14:03:28;4.83;;;3.23;;
19084;SDS011;9675;51.538;6.728;2023-04-28T14:05:55;5.40;;;3.27;;
19084;SDS011;9675;51.538;6.728;2023-04-28T14:08:24;6.80;;;3.30;;
19084;SDS011;9675;51.538;6.728;2023-04-28T14:10:51;6.63;;;3.73;;
19084;SDS011;9675;51.538;6.728;2023-04-28T14:13:18;2.93;;;2.43;;
19084;SDS011;9675;51.538;6.728;2023-04-28T14:15:47;5.63;;;2.90;;
19084;SDS011;9675;51.538;6.728;2023-04-28T14:18:14;3.83;;;2.73;;
19084;SDS011;9675;51.538;6.728;2023-04-28T14:20:41;5.47;;;3.80;;
19084;SDS011;9675;51.538;6.728;2023-04-28T14:23:08;5.33;;;4.00;;
19084;SDS011;9675;51.538;6.728;2023-04-28T14:25:36;4.77;;;3.07;;
19084;SDS011;9675;51.538;6.728;2023-04-28T14:28:03;10.93;;;3.40;;
19084;SDS011;9675;51.538;6.728;2023-04-28T14:30:30;6.20;;;2.87;;
19084;SDS011;9675;51.538;6.728;2023-04-28T14:32:58;4.77;;;2.87;;
19084;SDS011;9675;51.538;6.728;2023-04-28T14:35:26;3.60;;;2.50;;
19084;SDS011;9675;51.538;6.728;2023-04-28T14:37:54;4.37;;;3.00;;
19084;SDS011;9675;51.538;6.728;2023-04-28T14:40:22;4.30;;;2.43;;
19084;SDS011;9675;51.538;6.728;2023-04-28T14:42:49;3.77;;;2.80;;
19084;SDS011;9675;51.538;6.728;2023-04-28T14:45:16;4.47;;;3.33;;
19084;SDS011;9675;51.538;6.728;2023-04-28T14:47:44;3.73;;;2.90;;
19084;SDS011;9675;51.538;6.728;2023-04-28T14:50:14;5.80;;;2.23;;
19084;SDS011;9675;51.538;6.728;2023-04-28T14:52:46;4.10;;;2.07;;
19084;SDS011;9675;51.538;6.728;2023-04-28T14:55:14;6.43;;;2.20;;
19084;SDS011;9675;51.538;6.728;2023-04-28T14:57:41;2.03;;;1.27;;
19084;SDS011;9675;51.538;6.728;2023-04-28T15:00:09;5.60;;;2.77;;
19084;SDS011;9675;51.538;6.728;2023-04-28T15:02:37;4.27;;;2.30;;
19084;SDS011;9675;51.538;6.728;2023-04-28T15:05:04;5.70;;;2.90;;
19084;SDS011;9675;51.538;6.728;2023-04-28T15:07:35;4.63;;;2.93;;
19084;SDS011;9675;51.538;6.728;2023-04-28T15:10:03;5.77;;;2.47;;
19084;SDS011;9675;51.538;6.728;2023-04-28T15:12:30;5.93;;;3.00;;
19084;SDS011;9675;51.538;6.728;2023-04-28T15:14:59;4.83;;;2.37;;
19084;SDS011;9675;51.538;6.728;2023-04-28T15:17:27;4.80;;;2.80;;
19084;SDS011;9675;51.538;6.728;2023-04-28T15:19:55;5.30;;;2.40;;
19084;SDS011;9675;51.538;6.728;2023-04-28T15:22:23;4.37;;;2.80;;
19084;SDS011;9675;51.538;6.728;2023-04-28T15:24:52;10.37;;;2.50;;
19084;SDS011;9675;51.538;6.728;2023-04-28T15:27:19;4.57;;;2.57;;
19084;SDS011;9675;51.538;6.728;2023-04-28T15:29:47;3.27;;;2.23;;